Time;durP1;ratioP1;P1;durP2;ratioP2;P2;SDS_P1;SDS_P2;PMS_P1;PMS_P2;Temp;Humidity;BMP_temperature;BMP_pressure;BME280_temperature;BME280_humidity;BME280_pressure;Samples;Min_cycle;Max_cycle;Signal;HPM_P1;HPM_P2
2021/12/16 00:02:27;;;;;;;;;42.25;35.00;;;;;9.66;72.33;103097.09;5097278;27;45465;-66
2021/12/16 00:07:48;;;;;;;;;42.75;33.00;;;;;9.69;72.46;103100.72;5101249;27;45929;-68
2021/12/16 00:10:27;;;;;;;;;41.25;33.00;;;;;9.53;71.52;103064.25;5081362;27;45474;-65
2021/12/16 00:34:51;;;;;;;;;36.75;30.25;;;;;9.99;70.75;103110.72;5095615;27;45736;-65
2021/12/16 00:37:17;;;;;;;;;31.75;25.50;;;;;9.92;70.72;103100.81;5098036;27;45315;-73
2021/12/16 00:39:44;;;;;;;;;39.50;32.25;;;;;9.94;70.60;103107.00;5095329;27;46266;-69
2021/12/16 00:42:26;;;;;;;;;36.00;32.00;;;;;9.90;70.75;103094.63;5096777;27;45363;-68
2021/12/16 00:54:04;;;;;;;;;36.25;30.00;;;;;9.94;70.54;103093.91;5096079;27;45405;-64
2021/12/16 00:55:53;;;;;;;;;39.00;31.25;;;;;10.07;70.69;103090.97;5095990;27;45311;-69
2021/12/16 00:58:25;;;;;;;;;33.00;31.25;;;;;10.05;70.42;103086.50;5096209;27;45560;-66
2021/12/16 01:01:04;;;;;;;;;45.00;33.25;;;;;9.98;70.62;103077.50;5097168;27;46085;-64
2021/12/16 01:08:50;;;;;;;;;38.75;30.75;;;;;10.08;69.79;103086.63;5080277;27;45494;-75
2021/12/16 01:37:13;;;;;;;;;38.00;32.00;;;;;9.91;70.22;103088.53;5096275;27;45402;-62
2021/12/16 01:40:02;;;;;;;;;40.00;33.00;;;;;9.95;70.46;103093.09;5092270;27;45353;-63
2021/12/16 01:50:33;;;;;;;;;32.50;30.00;;;;;9.90;70.46;103078.91;5097686;27;45325;-68
2021/12/16 01:55:47;;;;;;;;;35.25;30.00;;;;;10.08;69.98;103098.00;5096259;27;45931;-64
2021/12/16 01:58:17;;;;;;;;;37.00;31.75;;;;;10.07;69.75;103098.84;5094887;27;45299;-62
2021/12/16 02:00:55;;;;;;;;;43.25;33.50;;;;;10.12;70.00;103112.13;5094131;27;45396;-63
2021/12/16 02:03:37;;;;;;;;;40.75;33.25;;;;;10.14;69.74;103102.59;5094161;27;45639;-62
2021/12/16 02:08:39;;;;;;;;;38.25;33.00;;;;;10.06;70.05;103112.78;5097760;27;45449;-63
2021/12/16 02:32:54;;;;;;;;;44.50;34.50;;;;;10.11;69.47;103108.63;5096963;27;45837;-64
2021/12/16 02:35:33;;;;;;;;;44.50;35.25;;;;;10.08;69.61;103102.34;5094157;27;45442;-67
2021/12/16 02:38:03;;;;;;;;;40.25;34.25;;;;;10.09;69.91;103112.88;5093760;27;45503;-64
2021/12/16 02:40:29;;;;;;;;;42.00;33.50;;;;;10.02;70.02;103103.00;5093791;27;45887;-65
2021/12/16 02:43:19;;;;;;;;;45.75;33.75;;;;;10.14;69.75;103113.09;5094015;27;45432;-64
2021/12/16 02:48:40;;;;;;;;;35.75;30.25;;;;;10.07;69.67;103101.44;5093923;27;45890;-62
2021/12/16 02:51:12;;;;;;;;;44.25;34.25;;;;;10.05;70.07;103096.97;5093955;27;45322;-65
2021/12/16 02:53:45;;;;;;;;;44.50;35.50;;;;;10.08;69.52;103112.81;5093959;27;45354;-76
2021/12/16 02:56:11;;;;;;;;;33.75;31.00;;;;;10.07;69.66;103114.53;5078609;27;45400;-73
2021/12/16 02:58:40;;;;;;;;;41.75;33.50;;;;;10.11;69.83;103115.59;5097575;27;45365;-76
2021/12/16 03:01:13;;;;;;;;;41.50;36.00;;;;;10.11;69.26;103105.13;5096578;27;45396;-75
2021/12/16 03:03:39;;;;;;;;;45.00;35.25;;;;;10.05;69.67;103095.25;5096999;27;45351;-74
2021/12/16 03:06:06;;;;;;;;;44.50;37.75;;;;;10.11;69.70;103106.00;5097463;27;45448;-66
2021/12/16 03:08:33;;;;;;;;;41.25;36.50;;;;;10.15;69.69;103105.28;5098859;27;45390;-63
2021/12/16 03:14:38;;;;;;;;;47.75;37.25;;;;;10.14;69.56;103098.25;5097491;27;45370;-66
2021/12/16 03:16:48;;;;;;;;;44.25;36.00;;;;;10.14;69.79;103115.69;5073958;27;45658;-63
2021/12/16 03:21:46;;;;;;;;;46.50;36.25;;;;;10.14;69.49;103113.97;5099993;27;45267;-65
2021/12/16 03:27:08;;;;;;;;;48.75;38.75;;;;;10.20;69.21;103118.56;5097144;27;45323;-69
2021/12/16 03:32:07;;;;;;;;;41.50;32.00;;;;;10.05;69.72;103086.50;5099006;27;45417;-63
2021/12/16 03:39:53;;;;;;;;;39.50;32.00;;;;;10.14;68.97;103105.22;5096882;27;45682;-63
2021/12/16 03:42:34;;;;;;;;;33.75;29.25;;;;;10.13;69.41;103098.19;5100007;27;46308;-63
2021/12/16 03:48:11;;;;;;;;;32.50;27.75;;;;;10.26;69.10;103112.69;5098012;27;45366;-64
2021/12/16 03:50:37;;;;;;;;;34.25;30.00;;;;;10.25;69.04;103106.56;5096453;27;45877;-65
2021/12/16 03:53:04;;;;;;;;;31.75;28.75;;;;;10.32;69.41;103110.34;5096061;27;45425;-62
2021/12/16 03:55:30;;;;;;;;;28.75;28.25;;;;;10.31;68.77;103104.22;5099858;27;45478;-63
2021/12/16 03:57:57;;;;;;;;;34.50;30.00;;;;;10.21;68.89;103099.41;5078105;27;45458;-65
2021/12/16 04:00:31;;;;;;;;;31.00;25.50;;;;;10.29;68.93;103102.38;5096007;27;45629;-64
2021/12/16 04:02:58;;;;;;;;;27.50;24.25;;;;;10.31;68.85;103104.22;5095618;27;45443;-62
2021/12/16 04:05:25;;;;;;;;;30.75;26.50;;;;;10.31;68.95;103105.94;5096358;27;45318;-63
2021/12/16 04:07:51;;;;;;;;;31.25;23.25;;;;;10.38;68.43;103106.25;5099534;27;45465;-64
2021/12/16 04:10:33;;;;;;;;;34.75;31.00;;;;;10.35;68.04;103106.16;5095961;27;45516;-63
2021/12/16 04:13:02;;;;;;;;;29.25;26.50;;;;;10.33;68.55;103114.78;5095458;27;45372;-62
2021/12/16 04:15:28;;;;;;;;;29.75;24.75;;;;;10.36;69.00;103114.88;5095750;27;45504;-64
2021/12/16 04:17:54;;;;;;;;;26.75;22.25;;;;;10.39;68.82;103117.63;5096241;27;45930;-73
2021/12/16 04:20:21;;;;;;;;;26.00;22.75;;;;;10.44;68.91;103117.81;5081720;27;46842;-63
2021/12/16 04:22:47;;;;;;;;;28.50;23.25;;;;;10.45;68.36;103112.66;5098083;27;45436;-69
2021/12/16 04:25:21;;;;;;;;;28.25;25.75;;;;;10.39;68.28;103104.53;5095449;27;45910;-70
2021/12/16 04:27:49;;;;;;;;;31.75;27.75;;;;;10.48;68.84;103112.75;5095557;27;45420;-68
2021/12/16 04:30:16;;;;;;;;;31.00;29.00;;;;;10.50;68.77;103113.72;5095452;27;46313;-69
2021/12/16 04:32:43;;;;;;;;;31.00;28.50;;;;;10.49;68.94;103109.31;5095607;27;45373;-64
2021/12/16 04:35:10;;;;;;;;;33.25;27.25;;;;;10.30;68.78;103076.25;5097093;27;45420;-72
2021/12/16 04:37:36;;;;;;;;;30.75;26.00;;;;;10.52;68.92;103112.06;5081040;27;45543;-65
2021/12/16 04:40:04;;;;;;;;;29.50;22.25;;;;;10.62;68.64;103126.44;5098934;27;46616;-69
2021/12/16 04:42:30;;;;;;;;;29.00;25.25;;;;;10.56;68.34;103116.59;5098294;27;45708;-68
2021/12/16 04:44:56;;;;;;;;;37.50;30.00;;;;;10.66;68.19;103136.22;5099587;27;45333;-68
2021/12/16 04:47:22;;;;;;;;;34.50;30.75;;;;;10.69;68.68;103132.81;5100449;27;45523;-64
2021/12/16 04:49:48;;;;;;;;;41.50;33.00;;;;;10.69;68.64;103130.19;5100663;27;46227;-65
2021/12/16 04:52:17;;;;;;;;;39.50;32.50;;;;;10.72;68.68;103132.91;5097945;27;45649;-73
2021/12/16 04:54:45;;;;;;;;;31.25;30.00;;;;;10.72;68.38;103139.06;5095813;27;45542;-75
2021/12/16 04:57:11;;;;;;;;;33.50;29.25;;;;;10.69;68.45;103130.19;5096047;27;45377;-76
2021/12/16 04:59:37;;;;;;;;;48.25;39.75;;;;;10.74;68.31;103139.13;5099506;27;45438;-75
2021/12/16 05:02:08;;;;;;;;;38.50;33.00;;;;;10.76;68.48;103140.09;5095864;27;45422;-73
2021/12/16 05:04:34;;;;;;;;;41.50;32.00;;;;;10.74;68.63;103132.16;5095758;27;45591;-65
2021/12/16 05:07:00;;;;;;;;;41.50;32.00;;;;;10.79;68.22;103145.44;5095356;27;45511;-67
2021/12/16 05:12:18;;;;;;;;;36.00;29.75;;;;;10.75;68.51;103141.81;5099713;27;45445;-67
2021/12/16 05:14:45;;;;;;;;;33.75;30.25;;;;;10.76;68.65;103140.09;5095514;27;45601;-73
2021/12/16 05:17:24;;;;;;;;;35.50;31.25;;;;;10.78;68.52;103141.03;5095184;27;45421;-75
2021/12/16 05:19:51;;;;;;;;;35.00;30.25;;;;;10.78;68.31;103141.94;5094733;27;46301;-77
2021/12/16 05:25:06;;;;;;;;;33.00;30.00;;;;;10.74;68.39;103128.63;5094790;27;45371;-72
2021/12/16 05:27:31;;;;;;;;;33.25;29.50;;;;;10.60;68.02;103109.75;5094735;27;45464;-73
2021/12/16 05:29:57;;;;;;;;;29.75;26.50;;;;;10.77;67.66;103141.84;5094451;27;45516;-63
2021/12/16 05:32:23;;;;;;;;;26.75;25.25;;;;;10.79;68.38;103145.44;5095051;27;45583;-65
2021/12/16 05:34:49;;;;;;;;;30.50;26.50;;;;;10.79;67.64;103148.06;5094625;27;45314;-63
2021/12/16 05:37:15;;;;;;;;;28.50;26.25;;;;;10.82;67.61;103153.44;5094800;27;45672;-65
2021/12/16 05:39:40;;;;;;;;;27.50;27.00;;;;;10.86;67.90;103151.81;5092884;27;46653;-65
2021/12/16 05:42:06;;;;;;;;;33.00;28.00;;;;;10.83;67.66;103142.13;5095192;27;45387;-65
2021/12/16 05:44:32;;;;;;;;;28.75;26.50;;;;;10.88;67.51;103153.66;5094866;27;45322;-64
2021/12/16 05:46:58;;;;;;;;;30.75;26.00;;;;;10.83;67.49;103160.47;5094731;27;45448;-62
2021/12/16 05:49:24;;;;;;;;;33.00;26.00;;;;;10.82;67.85;103159.56;5094525;27;45797;-72
2021/12/16 05:51:50;;;;;;;;;27.00;24.25;;;;;10.81;67.66;103162.13;5094368;27;45542;-63
2021/12/16 05:54:16;;;;;;;;;31.00;27.25;;;;;10.65;67.35;103134.41;5094470;27;45387;-63
2021/12/16 05:56:42;;;;;;;;;32.25;29.75;;;;;10.82;67.29;103159.56;5094328;27;45679;-64
2021/12/16 05:59:12;;;;;;;;;31.25;26.75;;;;;10.85;67.29;103164.03;5094712;27;45418;-64
2021/12/16 06:01:39;;;;;;;;;29.75;26.50;;;;;10.63;67.22;103123.00;5094219;27;45330;-64
2021/12/16 06:04:06;;;;;;;;;29.50;23.00;;;;;10.87;67.06;103174.56;5087472;27;45394;-63
2021/12/16 06:06:33;;;;;;;;;31.75;24.00;;;;;10.82;67.63;103167.44;5076400;27;45877;-61
2021/12/16 06:09:00;;;;;;;;;30.00;25.00;;;;;10.77;67.69;103162.84;5077911;28;45467;-71
2021/12/16 06:11:29;;;;;;;;;33.50;26.50;;;;;10.81;67.79;103170.88;5075895;28;45397;-64
2021/12/16 06:14:17;;;;;;;;;30.25;28.00;;;;;10.80;67.54;103171.72;5073816;28;45367;-64
2021/12/16 06:22:47;;;;;;;;;31.00;25.50;;;;;10.80;67.71;103183.94;5073974;27;45484;-62
2021/12/16 06:28:07;;;;;;;;;35.25;29.75;;;;;10.84;67.68;103177.97;5074305;27;45383;-67
2021/12/16 06:30:40;;;;;;;;;32.00;29.00;;;;;10.78;68.22;103169.88;5055795;28;45315;-70
2021/12/16 06:33:12;;;;;;;;;33.00;29.25;;;;;10.77;68.14;103168.06;5055656;28;45465;-68
2021/12/16 06:35:40;;;;;;;;;25.25;23.75;;;;;10.78;68.00;103180.38;5076080;27;45544;-75
2021/12/16 06:38:24;;;;;;;;;44.25;32.00;;;;;10.74;68.28;103173.19;5078044;27;45501;-75
2021/12/16 06:40:50;;;;;;;;;33.25;31.00;;;;;10.76;67.93;103175.06;5061309;28;46715;-71
2021/12/16 06:43:18;;;;;;;;;38.25;32.00;;;;;10.76;68.02;103182.03;5089431;27;45400;-66
2021/12/16 06:45:48;;;;;;;;;32.75;28.75;;;;;10.76;67.93;103179.41;5082398;27;45453;-65
2021/12/16 06:48:19;;;;;;;;;35.75;31.75;;;;;10.76;67.88;103179.41;5060668;27;45740;-67
2021/12/16 06:50:52;;;;;;;;;36.50;32.25;;;;;10.76;68.27;103179.41;5081349;27;45501;-68
2021/12/16 06:53:29;;;;;;;;;33.25;30.00;;;;;10.73;68.05;103180.19;5077548;27;45715;-75
2021/12/16 06:56:09;;;;;;;;;45.00;33.75;;;;;10.71;68.82;103186.19;5059411;28;45433;-64
2021/12/16 06:58:42;;;;;;;;;31.25;29.00;;;;;10.68;68.86;103192.22;5077128;27;45530;-70
2021/12/16 07:01:29;;;;;;;;;35.75;29.75;;;;;10.68;69.26;103186.03;5077318;27;46107;-71
2021/12/16 07:03:55;;;;;;;;;32.00;29.00;;;;;10.73;68.57;103200.25;5076843;27;45699;-63
2021/12/16 07:06:30;;;;;;;;;31.50;28.75;;;;;10.74;68.90;103196.78;5077093;28;45412;-63
2021/12/16 07:09:02;;;;;;;;;38.00;31.75;;;;;10.68;68.55;103180.81;5082999;27;45406;-63
2021/12/16 07:11:30;;;;;;;;;29.50;27.50;;;;;10.72;68.75;103187.97;5077170;27;45738;-63
2021/12/16 07:13:59;;;;;;;;;32.50;29.75;;;;;10.73;68.48;103200.25;5090539;27;45444;-62
2021/12/16 07:16:28;;;;;;;;;31.75;28.25;;;;;10.67;68.90;103190.41;5098832;27;45478;-65
2021/12/16 07:18:58;;;;;;;;;27.75;26.00;;;;;10.69;68.81;103193.09;5093517;27;45831;-75
2021/12/16 07:21:25;;;;;;;;;33.75;29.75;;;;;10.75;68.98;103211.72;5078876;27;46366;-72
2021/12/16 07:23:52;;;;;;;;;33.50;31.75;;;;;10.76;68.87;103206.50;5081851;27;46039;-70
2021/12/16 07:26:18;;;;;;;;;34.25;31.50;;;;;10.70;68.95;103193.16;5081275;27;45514;-75
2021/12/16 07:28:43;;;;;;;;;34.50;30.00;;;;;10.73;69.26;103200.25;5084878;27;45429;-75
2021/12/16 07:31:09;;;;;;;;;38.75;33.50;;;;;10.75;69.02;103207.34;5079756;27;45521;-67
2021/12/16 07:33:35;;;;;;;;;35.75;32.00;;;;;10.73;68.89;103197.63;5080020;27;45334;-72
2021/12/16 07:36:02;;;;;;;;;33.00;29.00;;;;;10.73;68.99;103208.13;5078522;27;45480;-67
2021/12/16 07:38:29;;;;;;;;;34.50;29.00;;;;;10.67;69.22;103206.13;5080009;27;45350;-71
2021/12/16 07:40:57;;;;;;;;;32.50;28.75;;;;;10.72;69.31;103209.81;5076146;27;46262;-68
2021/12/16 07:45:51;;;;;;;;;36.75;31.00;;;;;10.72;68.92;103211.56;5076115;28;45542;-72
2021/12/16 07:48:18;;;;;;;;;36.50;32.00;;;;;10.74;68.58;103213.41;5076452;27;45416;-75
2021/12/16 07:50:46;;;;;;;;;35.00;30.25;;;;;10.66;69.02;103195.59;5080468;27;46719;-64
2021/12/16 07:53:12;;;;;;;;;34.75;28.00;;;;;10.67;69.31;103203.50;5098677;27;45290;-69
2021/12/16 07:55:41;;;;;;;;;32.75;27.00;;;;;10.75;69.01;103212.59;5081290;27;45477;-67
2021/12/16 07:58:08;;;;;;;;;36.00;31.25;;;;;10.79;69.22;103210.97;5078656;27;45491;-62
2021/12/16 08:00:37;;;;;;;;;32.50;29.25;;;;;10.81;68.88;103206.69;5096085;27;47203;-75
2021/12/16 08:03:06;;;;;;;;;32.75;29.50;;;;;10.81;68.71;103209.31;5099432;27;45294;-68
2021/12/16 08:05:37;;;;;;;;;34.25;30.75;;;;;10.80;68.46;103211.06;5099665;27;45368;-63
2021/12/16 08:08:04;;;;;;;;;31.75;28.50;;;;;10.81;68.79;103220.69;5096275;27;45574;-68
2021/12/16 08:10:29;;;;;;;;;37.00;32.00;;;;;10.82;68.94;103229.47;5098009;27;45401;-64
2021/12/16 08:12:55;;;;;;;;;34.75;28.25;;;;;10.78;68.98;103212.72;5096495;27;45667;-64
2021/12/16 08:15:24;;;;;;;;;29.50;27.25;;;;;9.74;68.22;103025.03;5095913;27;45440;-71
2021/12/16 08:17:50;;;;;;;;;32.25;27.50;;;;;10.89;68.58;103215.78;5095971;27;45510;-75
2021/12/16 08:20:18;;;;;;;;;31.75;29.25;;;;;10.96;68.56;103235.25;5095622;27;45954;-73
2021/12/16 08:22:49;;;;;;;;;28.50;25.00;;;;;10.92;68.71;103222.88;5077932;27;45503;-65
2021/12/16 08:25:18;;;;;;;;;30.75;28.50;;;;;10.86;68.46;103212.13;5095915;27;45463;-68
2021/12/16 08:27:46;;;;;;;;;30.50;24.75;;;;;10.93;68.50;103229.91;5077921;27;45570;-67
2021/12/16 08:30:17;;;;;;;;;32.00;26.25;;;;;10.97;68.37;103224.84;5095222;27;46002;-67
2021/12/16 08:32:44;;;;;;;;;30.25;26.75;;;;;10.95;67.97;103229.13;5095247;27;45506;-65
2021/12/16 08:35:11;;;;;;;;;37.00;28.25;;;;;10.99;68.17;103240.66;5077491;27;45399;-68
2021/12/16 08:37:37;;;;;;;;;30.50;26.25;;;;;10.96;67.99;103232.63;5077638;27;45625;-73
2021/12/16 08:40:05;;;;;;;;;30.25;27.25;;;;;11.04;67.97;103244.34;5096069;27;45422;-73
2021/12/16 08:42:31;;;;;;;;;40.50;30.50;;;;;11.04;67.72;103234.75;5098224;27;45546;-72
2021/12/16 08:44:57;;;;;;;;;34.00;27.75;;;;;10.98;67.76;103217.84;5098956;27;45444;-74
2021/12/16 08:47:23;;;;;;;;;35.00;30.50;;;;;11.10;67.61;103241.94;5099757;27;45479;-74
2021/12/16 08:49:50;;;;;;;;;35.50;28.25;;;;;11.12;67.77;103247.25;5100284;27;46118;-67
2021/12/16 08:52:19;;;;;;;;;32.50;28.75;;;;;11.04;67.76;103237.34;5096846;27;45954;-65
2021/12/16 08:54:47;;;;;;;;;32.50;29.25;;;;;11.07;67.31;103247.06;5077342;27;45514;-61
2021/12/16 08:57:13;;;;;;;;;28.50;26.00;;;;;11.13;66.73;103251.66;5094719;27;45393;-64
2021/12/16 08:59:39;;;;;;;;;30.00;26.00;;;;;11.04;67.01;103236.47;5096154;27;45611;-64
2021/12/16 09:02:07;;;;;;;;;29.50;26.75;;;;;11.17;66.71;103251.84;5097810;27;45428;-64
2021/12/16 09:04:34;;;;;;;;;33.00;30.75;;;;;11.17;66.79;103248.34;5094675;27;46079;-65
2021/12/16 09:07:02;;;;;;;;;30.50;28.25;;;;;11.09;66.12;103231.41;5094875;27;45470;-63
2021/12/16 09:09:32;;;;;;;;;30.00;24.00;;;;;11.20;66.28;103258.94;5096401;27;45535;-64
2021/12/16 09:12:12;;;;;;;;;31.75;27.25;;;;;11.16;66.78;103250.06;5098359;27;45599;-67
2021/12/16 09:14:39;;;;;;;;;28.25;23.25;;;;;11.21;66.10;103247.63;5076534;27;45536;-64
2021/12/16 09:17:10;;;;;;;;;28.25;23.00;;;;;11.28;65.93;103260.16;5095179;27;45379;-69
2021/12/16 09:19:55;;;;;;;;;33.00;23.50;;;;;11.32;65.99;103259.44;5095201;27;45565;-69
2021/12/16 09:22:24;;;;;;;;;28.25;24.75;;;;;11.35;65.86;103263.91;5094855;27;45580;-65
2021/12/16 09:24:57;;;;;;;;;31.50;27.50;;;;;11.35;65.08;103258.69;5093299;27;45421;-65
2021/12/16 09:27:26;;;;;;;;;31.75;27.75;;;;;11.38;65.18;103271.91;5093199;27;45486;-62
2021/12/16 09:29:53;;;;;;;;;27.00;25.25;;;;;11.39;65.61;103271.06;5094944;27;46527;-66
2021/12/16 09:32:21;;;;;;;;;28.50;25.00;;;;;11.43;65.59;103273.84;5094226;27;45496;-67
2021/12/16 09:34:47;;;;;;;;;34.00;29.25;;;;;11.29;64.89;103248.81;5094369;27;45480;-69
2021/12/16 09:37:13;;;;;;;;;26.50;25.50;;;;;11.43;64.79;103273.84;5095884;27;46065;-72
2021/12/16 09:39:38;;;;;;;;;29.50;24.25;;;;;11.39;64.71;103268.44;5099037;27;45417;-69
2021/12/16 09:42:06;;;;;;;;;25.75;24.75;;;;;11.42;64.79;103273.81;5092812;27;45480;-70
2021/12/16 09:44:32;;;;;;;;;24.25;21.75;;;;;11.49;64.53;103285.47;5073470;28;45324;-74
2021/12/16 09:47:10;;;;;;;;;22.00;19.50;;;;;11.42;64.00;103276.44;5078848;28;45543;-64
2021/12/16 09:49:42;;;;;;;;;28.25;22.25;;;;;11.45;64.11;103289.69;5060611;28;46725;-66
2021/12/16 09:52:11;;;;;;;;;26.50;21.50;;;;;11.49;64.15;103291.59;5078087;28;45426;-67
2021/12/16 09:54:39;;;;;;;;;29.50;26.50;;;;;11.45;63.95;103292.31;5076019;27;45370;-74
2021/12/16 09:57:05;;;;;;;;;24.00;22.00;;;;;11.52;64.36;103298.69;5056270;28;45479;-74
2021/12/16 09:59:33;;;;;;;;;24.25;20.50;;;;;11.55;64.31;103302.31;5074127;28;46033;-67
2021/12/16 10:02:03;;;;;;;;;22.00;19.00;;;;;11.57;63.79;103302.38;5074376;28;45499;-70
2021/12/16 10:04:31;;;;;;;;;21.50;20.00;;;;;11.59;64.28;103295.47;5075034;28;45516;-73
2021/12/16 10:07:01;;;;;;;;;23.50;21.50;;;;;11.61;64.33;103301.69;5078460;27;45486;-73
2021/12/16 10:09:27;;;;;;;;;24.00;21.00;;;;;11.39;63.84;103260.56;5080052;28;45367;-71
2021/12/16 10:11:56;;;;;;;;;29.75;25.50;;;;;11.66;63.70;103303.63;5081843;27;45543;-72
2021/12/16 10:19:38;;;;;;;;;25.25;22.25;;;;;11.63;65.52;103300.00;5077622;27;45489;-66
2021/12/16 10:22:19;;;;;;;;;27.00;25.75;;;;;11.72;64.58;103309.94;5077683;27;45491;-67
2021/12/16 10:24:46;;;;;;;;;27.25;25.00;;;;;11.64;63.75;103293.91;5059101;28;45986;-70
2021/12/16 10:27:23;;;;;;;;;26.75;23.75;;;;;11.58;64.02;103284.09;5077509;28;45483;-67
2021/12/16 10:29:49;;;;;;;;;25.00;20.75;;;;;11.75;63.51;103305.72;5077872;28;46130;-68
2021/12/16 10:32:45;;;;;;;;;23.00;22.75;;;;;11.77;63.07;103304.06;5077123;27;45382;-67
2021/12/16 10:35:28;;;;;;;;;26.50;26.25;;;;;11.77;63.17;103306.69;5077560;27;45751;-66
2021/12/16 10:38:02;;;;;;;;;29.00;26.25;;;;;11.77;63.54;103301.44;5080127;27;45522;-65
2021/12/16 10:40:50;;;;;;;;;31.25;27.75;;;;;11.76;63.45;103310.13;5077088;28;45487;-68
2021/12/16 10:43:24;;;;;;;;;30.00;26.75;;;;;11.75;63.13;103304.84;5077026;27;45271;-65
2021/12/16 10:45:57;;;;;;;;;32.75;25.00;;;;;11.74;62.96;103303.91;5076880;27;45414;-68
2021/12/16 10:48:54;;;;;;;;;29.00;27.25;;;;;11.74;62.92;103311.78;5077310;27;45405;-66
2021/12/16 10:51:37;;;;;;;;;31.75;27.50;;;;;11.73;63.05;103304.75;5075530;27;46895;-67
2021/12/16 10:54:30;;;;;;;;;39.25;26.75;;;;;11.75;62.98;103308.34;5076513;28;45527;-66
2021/12/16 10:57:02;;;;;;;;;32.25;27.50;;;;;11.74;63.35;103310.91;5073868;27;45696;-66
2021/12/16 10:59:38;;;;;;;;;29.50;24.25;;;;;11.72;63.23;103303.00;5058911;28;45529;-65
2021/12/16 11:02:12;;;;;;;;;38.75;31.50;;;;;11.75;64.19;103294.34;5058407;27;46512;-64
2021/12/16 11:04:37;;;;;;;;;32.50;31.00;;;;;11.79;66.09;103296.22;5079884;28;45379;-64
2021/12/16 11:07:15;;;;;;;;;34.25;26.25;;;;;11.84;65.37;103300.81;5076578;28;45400;-65
2021/12/16 11:10:01;;;;;;;;;34.00;30.75;;;;;11.81;64.42;103292.81;5076903;27;45464;-66
2021/12/16 11:12:31;;;;;;;;;34.75;31.50;;;;;11.85;63.89;103304.34;5076491;28;46044;-64
2021/12/16 11:14:59;;;;;;;;;36.75;29.00;;;;;11.86;64.07;103300.88;5076142;28;45410;-67
2021/12/16 11:17:32;;;;;;;;;39.50;31.25;;;;;11.87;63.31;103306.22;5077476;27;45397;-67
2021/12/16 11:20:26;;;;;;;;;39.00;32.00;;;;;11.88;63.45;103307.09;5089089;27;45389;-68
2021/12/16 11:22:58;;;;;;;;;37.00;32.00;;;;;11.85;63.49;103310.47;5057678;27;46467;-65
2021/12/16 11:25:38;;;;;;;;;34.75;32.00;;;;;11.86;63.14;103307.03;5091863;27;45343;-66
2021/12/16 11:28:21;;;;;;;;;34.00;30.50;;;;;11.87;62.79;103306.22;5076293;27;45330;-65
2021/12/16 11:30:54;;;;;;;;;33.75;30.50;;;;;11.86;64.12;103311.38;5078993;28;46270;-67
2021/12/16 11:33:48;;;;;;;;;34.00;29.50;;;;;11.85;63.38;103310.47;5080102;27;46576;-67
2021/12/16 11:36:21;;;;;;;;;32.25;29.50;;;;;11.86;66.65;103307.03;5060647;27;45525;-66
2021/12/16 11:39:01;;;;;;;;;34.75;30.75;;;;;11.88;63.02;103300.13;5100741;27;45473;-64
2021/12/16 11:41:36;;;;;;;;;36.25;31.50;;;;;11.78;62.68;103284.81;5100823;27;45655;-66
2021/12/16 11:44:14;;;;;;;;;35.25;29.75;;;;;11.91;62.89;103301.06;5095634;27;45342;-67
2021/12/16 11:46:44;;;;;;;;;38.25;32.25;;;;;11.88;63.21;103300.13;5095650;27;45580;-65
2021/12/16 11:49:28;;;;;;;;;43.00;35.75;;;;;11.90;63.01;103297.56;5088010;27;45449;-65
2021/12/16 11:52:02;;;;;;;;;35.50;32.25;;;;;11.96;63.49;103305.69;5088554;27;46016;-66
2021/12/16 11:54:39;;;;;;;;;34.25;29.75;;;;;11.99;63.18;103292.66;5095493;27;45564;-66
2021/12/16 11:57:14;;;;;;;;;43.75;34.00;;;;;12.04;62.62;103300.69;5099684;27;45543;-67
2021/12/16 12:00:06;;;;;;;;;43.00;34.75;;;;;11.96;63.03;103294.25;5099527;27;45339;-65
2021/12/16 12:02:37;;;;;;;;;48.50;36.50;;;;;11.76;63.11;103262.88;5093564;27;45967;-64
2021/12/16 12:05:18;;;;;;;;;40.75;34.75;;;;;11.96;63.06;103296.88;5095181;27;46197;-66
2021/12/16 12:07:49;;;;;;;;;43.25;34.50;;;;;11.86;63.07;103280.78;5096376;27;45408;-65
2021/12/16 12:10:23;;;;;;;;;38.50;30.00;;;;;11.92;62.78;103287.13;5098718;27;45386;-64
2021/12/16 12:12:49;;;;;;;;;33.75;29.75;;;;;11.91;63.52;103278.31;5099529;27;45485;-64
2021/12/16 12:15:18;;;;;;;;;41.25;37.50;;;;;12.00;63.17;103288.28;5094720;27;45508;-69
2021/12/16 12:17:52;;;;;;;;;41.50;34.75;;;;;12.02;63.16;103292.75;5096489;27;45677;-71
2021/12/16 12:20:32;;;;;;;;;34.50;31.25;;;;;12.00;63.60;103280.41;5097885;27;45490;-69
2021/12/16 12:23:00;;;;;;;;;37.75;33.00;;;;;12.05;62.82;103277.13;5100290;27;45631;-66
2021/12/16 12:25:26;;;;;;;;;44.00;36.75;;;;;12.07;63.28;103285.03;5096283;27;46366;-73
2021/12/16 12:27:55;;;;;;;;;45.00;35.50;;;;;12.09;62.85;103283.38;5096106;27;45382;-66
2021/12/16 12:30:21;;;;;;;;;43.00;34.50;;;;;12.11;63.25;103273.81;5077395;27;45790;-65
2021/12/16 12:32:51;;;;;;;;;47.50;37.00;;;;;11.91;63.18;103235.41;5077028;27;45600;-66
2021/12/16 12:35:27;;;;;;;;;40.75;33.75;;;;;12.22;62.71;103279.44;5098114;27;46326;-66
2021/12/16 12:37:59;;;;;;;;;39.00;33.00;;;;;12.23;63.24;103276.00;5099962;27;45457;-68
2021/12/16 12:40:34;;;;;;;;;38.00;34.25;;;;;12.25;62.56;103280.47;5098976;27;45456;-67
2021/12/16 12:43:00;;;;;;;;;38.25;32.75;;;;;12.29;62.69;103273.56;5075039;27;45523;-64
2021/12/16 12:45:30;;;;;;;;;40.25;35.00;;;;;12.26;62.96;103274.34;5073894;27;45942;-72
2021/12/16 12:47:59;;;;;;;;;39.75;33.75;;;;;12.26;62.55;103266.47;5094651;27;45884;-65
2021/12/16 12:50:35;;;;;;;;;44.75;35.25;;;;;12.30;62.41;103272.75;5094825;27;45817;-66
2021/12/16 12:53:25;;;;;;;;;41.75;34.75;;;;;12.28;62.33;103262.16;5098164;27;45567;-67
2021/12/16 12:55:56;;;;;;;;;39.00;34.75;;;;;12.32;62.49;103262.28;5098051;27;45580;-69
2021/12/16 12:58:25;;;;;;;;;36.25;31.00;;;;;12.32;62.21;103257.03;5095310;27;45755;-69
2021/12/16 13:01:09;;;;;;;;;36.00;31.25;;;;;12.21;61.48;103247.03;5093482;27;45337;-68
2021/12/16 13:03:38;;;;;;;;;40.75;35.00;;;;;12.30;61.48;103262.22;5099039;27;45362;-68
2021/12/16 13:06:08;;;;;;;;;40.50;32.50;;;;;12.29;61.45;103263.97;5098365;27;46733;-68
2021/12/16 13:08:37;;;;;;;;;37.50;33.00;;;;;12.18;61.53;103243.41;5095235;27;45495;-70
2021/12/16 13:11:14;;;;;;;;;32.75;28.25;;;;;12.25;61.68;103261.19;5093611;27;46316;-70
2021/12/16 13:14:35;;;;;;;;;34.75;28.50;;;;;12.25;61.05;103255.94;5097984;27;45279;-70
2021/12/16 13:23:20;;;;;;;;;34.75;29.75;;;;;12.30;61.11;103257.88;5094892;27;45483;-68
2021/12/16 13:28:33;;;;;;;;;34.25;31.75;;;;;12.27;61.18;103255.13;5093599;27;45340;-70
2021/12/16 13:31:04;;;;;;;;;32.75;31.75;;;;;12.19;61.18;103242.56;5093441;27;45453;-69
2021/12/16 13:33:54;;;;;;;;;39.50;31.25;;;;;12.17;61.30;103229.38;5094013;27;45374;-70
2021/12/16 13:36:40;;;;;;;;;35.00;34.25;;;;;12.26;61.22;103236.69;5075207;27;45549;-69
2021/12/16 13:39:14;;;;;;;;;29.25;28.25;;;;;12.24;60.90;103230.47;5090565;27;45534;-66
2021/12/16 13:42:04;;;;;;;;;39.00;30.75;;;;;12.22;61.10;103234.78;5094682;27;45569;-67
2021/12/16 13:45:00;;;;;;;;;32.75;30.00;;;;;12.28;60.64;103237.63;5093503;27;45777;-69
2021/12/16 13:47:58;;;;;;;;;30.75;28.50;;;;;12.26;61.09;103229.69;5095542;27;45495;-68
2021/12/16 14:00:03;;;;;;;;;28.00;23.75;;;;;12.24;60.55;103239.28;5094007;27;46123;-67
2021/12/16 14:02:00;;;;;;;;;30.50;25.50;;;;;12.27;60.37;103246.38;5092626;27;46062;-65
2021/12/16 14:10:29;;;;;;;;;35.00;28.00;;;;;12.22;60.16;103238.31;5094005;27;45350;-63
2021/12/16 14:13:45;;;;;;;;;43.50;31.00;;;;;12.24;60.57;103239.28;5094319;27;45420;-64
2021/12/16 14:39:01;;;;;;;;;29.75;27.75;;;;;12.10;60.61;103235.22;5094078;27;45655;-67
2021/12/16 14:47:31;;;;;;;;;35.50;30.75;;;;;12.13;61.02;103243.25;5041636;27;46056;-64